createdAt,value
2019-06-10T00:00:32.523Z,1013.40
2019-06-10T00:01:32.545Z,1013.29
2019-06-10T00:02:32.533Z,1013.28
2019-06-10T00:03:32.500Z,1013.43
2019-06-10T00:04:32.510Z,1013.29
2019-06-10T00:05:32.491Z,1013.33
2019-06-10T00:06:32.466Z,1013.29
2019-06-10T00:07:32.458Z,1013.27
2019-06-10T00:08:32.448Z,1013.24
2019-06-10T00:09:32.450Z,1013.19
2019-06-10T00:10:32.432Z,1013.22
2019-06-10T00:11:32.416Z,1013.26
2019-06-10T00:12:32.401Z,1013.15
2019-06-10T00:13:32.392Z,1013.19
2019-06-10T00:14:32.401Z,1013.18
2019-06-10T00:15:32.370Z,1013.24
2019-06-10T00:16:32.366Z,1013.10
2019-06-10T00:17:32.344Z,1013.13
2019-06-10T00:18:41.068Z,1013.09
2019-06-10T00:19:33.356Z,1013.09
2019-06-10T00:20:32.305Z,1013.18
2019-06-10T00:21:32.293Z,1013.06
2019-06-10T00:22:32.289Z,1013.04
2019-06-10T00:23:32.282Z,1013.11
2019-06-10T00:24:32.308Z,1013.13
2019-06-10T00:25:32.259Z,1013.13
2019-06-10T00:26:32.244Z,1013.25
2019-06-10T00:27:32.229Z,1013.25
2019-06-10T00:28:32.218Z,1013.16
2019-06-10T00:29:32.231Z,1013.22
2019-06-10T00:30:32.198Z,1013.25
2019-06-10T00:31:32.223Z,1013.24
2019-06-10T00:32:32.180Z,1013.25
2019-06-10T00:33:32.169Z,1013.40
2019-06-10T00:34:34.977Z,1013.38
2019-06-10T00:35:32.152Z,1013.24
2019-06-10T00:36:32.134Z,1013.30
2019-06-10T00:37:32.124Z,1013.30
2019-06-10T00:38:32.104Z,1013.28
2019-06-10T00:39:32.120Z,1013.27
2019-06-10T00:40:32.089Z,1013.35
2019-06-10T00:41:32.072Z,1013.30
2019-06-10T00:42:32.064Z,1013.43
2019-06-10T00:43:32.054Z,1013.40
2019-06-10T00:44:32.060Z,1013.33
2019-06-10T00:45:32.030Z,1013.21
2019-06-10T00:46:32.041Z,1013.17
2019-06-10T00:47:32.020Z,1013.24
2019-06-10T00:48:32.515Z,1013.14
2019-06-10T00:49:32.002Z,1013.15
2019-06-10T00:50:31.971Z,1013.13
2019-06-10T00:51:31.950Z,1013.20
2019-06-10T00:52:31.962Z,1013.19
2019-06-10T00:53:31.930Z,1013.10
2019-06-10T00:54:31.961Z,1013.03
2019-06-10T00:55:31.916Z,1013.04
2019-06-10T00:56:31.908Z,1013.03
2019-06-10T00:57:31.899Z,1012.98
2019-06-10T00:58:32.126Z,1013.02
2019-06-10T00:59:31.902Z,1012.94
2019-06-10T01:00:31.924Z,1013.04
2019-06-10T01:01:31.855Z,1012.91
2019-06-10T01:02:31.984Z,1012.94
2019-06-10T01:03:31.836Z,1012.97
2019-06-10T01:04:31.992Z,1012.94
2019-06-10T01:05:31.807Z,1013.01
2019-06-10T01:06:31.998Z,1012.90
2019-06-10T01:07:31.781Z,1012.86
2019-06-10T01:08:31.779Z,1012.86
2019-06-10T01:09:31.785Z,1012.94
2019-06-10T01:10:31.765Z,1012.82
2019-06-10T01:11:31.740Z,1012.89
2019-06-10T01:12:31.773Z,1012.82
2019-06-10T01:13:31.733Z,1012.78
2019-06-10T01:14:32.033Z,1012.73
2019-06-10T01:15:31.721Z,1012.64
2019-06-10T01:16:31.921Z,1012.57
2019-06-10T01:17:31.705Z,1012.54
2019-06-10T01:18:38.136Z,1012.56
2019-06-10T01:19:32.665Z,1012.45
2019-06-10T01:20:32.541Z,1012.56
2019-06-10T01:21:31.629Z,1012.53
2019-06-10T01:22:31.697Z,1012.48
2019-06-10T01:23:31.606Z,1012.40
2019-06-10T01:24:31.627Z,1012.50
2019-06-10T01:25:31.579Z,1012.39
2019-06-10T01:26:31.583Z,1012.46
2019-06-10T01:27:31.619Z,1012.40
2019-06-10T01:28:31.587Z,1012.35
2019-06-10T01:29:31.552Z,1012.32
2019-06-10T01:30:31.555Z,1012.40
2019-06-10T01:31:31.841Z,1012.28
2019-06-10T01:32:31.499Z,1012.40
2019-06-10T01:33:31.945Z,1012.38
2019-06-10T01:34:31.483Z,1012.34
2019-06-10T01:35:31.485Z,1012.26
2019-06-10T01:36:31.530Z,1012.36
2019-06-10T01:37:31.449Z,1012.34
2019-06-10T01:38:31.743Z,1012.37
2019-06-10T01:39:31.438Z,1012.34
2019-06-10T01:40:31.521Z,1012.21
2019-06-10T01:41:31.391Z,1012.22
2019-06-10T01:42:31.394Z,1012.21
2019-06-10T01:43:32.059Z,1012.11
2019-06-10T01:44:31.391Z,1012.17
2019-06-10T01:45:31.374Z,1012.14
2019-06-10T01:46:31.715Z,1012.14
2019-06-10T01:47:31.338Z,1012.24
2019-06-10T01:48:43.706Z,1012.25
2019-06-10T01:49:32.338Z,1012.22
2019-06-10T01:50:31.300Z,1012.17
2019-06-10T01:51:31.767Z,1012.19
2019-06-10T01:52:31.661Z,1012.14
2019-06-10T01:53:31.616Z,1012.02
2019-06-10T01:54:31.656Z,1012.14
2019-06-10T01:55:31.324Z,1012.05
2019-06-10T01:56:31.565Z,1012.17
2019-06-10T01:57:31.217Z,1012.13
2019-06-10T01:58:31.737Z,1011.96
2019-06-10T01:59:31.349Z,1011.97
2019-06-10T02:00:31.292Z,1011.94
2019-06-10T02:01:31.181Z,1011.98
2019-06-10T02:02:35.025Z,1011.97
2019-06-10T02:03:31.589Z,1012.01
2019-06-10T02:04:32.012Z,1012.13
2019-06-10T02:05:31.245Z,1011.96
2019-06-10T02:06:31.703Z,1012.05
2019-06-10T02:07:32.014Z,1012.12
2019-06-10T02:08:31.553Z,1012.09
2019-06-10T02:09:31.223Z,1012.07
2019-06-10T02:10:31.163Z,1012.05
2019-06-10T02:11:31.735Z,1012.01
2019-06-10T02:12:31.624Z,1011.97
2019-06-10T02:13:32.711Z,1011.97
2019-06-10T02:14:31.711Z,1011.97
2019-06-10T02:15:31.483Z,1012.06
2019-06-10T02:16:32.504Z,1011.98
2019-06-10T02:17:31.432Z,1011.89
2019-06-10T02:18:31.976Z,1011.84
2019-06-10T02:19:31.336Z,1011.85
2019-06-10T02:20:31.762Z,1011.84
2019-06-10T02:21:31.192Z,1011.89
2019-06-10T02:22:31.789Z,1011.81
2019-06-10T02:23:31.398Z,1011.72
2019-06-10T02:24:31.479Z,1011.71
2019-06-10T02:25:30.939Z,1011.72
2019-06-10T02:26:31.011Z,1011.66
2019-06-10T02:27:31.452Z,1011.70
2019-06-10T02:28:31.633Z,1011.63
2019-06-10T02:29:30.995Z,1011.55
2019-06-10T02:30:41.671Z,1011.58
2019-06-10T02:31:37.583Z,1011.47
2019-06-10T02:32:37.433Z,1011.37
2019-06-10T02:33:35.907Z,1011.30
2019-06-10T02:34:34.074Z,1011.22
2019-06-10T02:35:43.311Z,1011.16
2019-06-10T02:36:36.569Z,1011.23
2019-06-10T02:37:37.756Z,1011.05
2019-06-10T02:38:37.807Z,1011.03
2019-06-10T02:39:35.198Z,1011.03
2019-06-10T02:40:36.263Z,1011.03
2019-06-10T02:41:35.292Z,1010.96
2019-06-10T02:42:35.597Z,1010.88
2019-06-10T02:43:35.812Z,1010.97
2019-06-10T02:44:34.358Z,1011.03
2019-06-10T02:45:36.959Z,1011.06
2019-06-10T02:46:36.043Z,1011.13
2019-06-10T02:47:33.493Z,1011.07
2019-06-10T02:48:34.951Z,1010.99
2019-06-10T02:49:50.765Z,1011.09
2019-06-10T02:50:35.775Z,1011.20
2019-06-10T02:51:34.575Z,1011.19
2019-06-10T02:52:34.209Z,1011.26
2019-06-10T02:53:35.651Z,1011.23
2019-06-10T02:54:32.698Z,1011.24
2019-06-10T02:55:34.972Z,1011.33
2019-06-10T02:56:35.751Z,1011.34
2019-06-10T02:57:39.451Z,1011.37
2019-06-10T02:58:38.567Z,1011.31
2019-06-10T02:59:35.973Z,1011.53
2019-06-10T03:00:42.367Z,1011.73
2019-06-10T03:01:37.022Z,1011.78
2019-06-10T03:02:36.084Z,1011.82
2019-06-10T03:03:39.313Z,1011.64
2019-06-10T03:04:36.510Z,1011.53
2019-06-10T03:05:40.291Z,1011.41
2019-06-10T03:06:38.556Z,1011.37
2019-06-10T03:07:35.259Z,1011.39
2019-06-10T03:08:35.030Z,1011.42
2019-06-10T03:09:32.873Z,1011.46
2019-06-10T03:10:33.957Z,1011.41
2019-06-10T03:11:36.455Z,1011.28
2019-06-10T03:12:33.082Z,1011.21
2019-06-10T03:13:30.385Z,1011.18
2019-06-10T03:14:32.751Z,1011.19
2019-06-10T03:15:32.148Z,1011.05
2019-06-10T03:16:32.774Z,1011.08
2019-06-10T03:17:32.272Z,1011.17
2019-06-10T03:18:32.710Z,1011.23
2019-06-10T03:19:46.542Z,1011.19
2019-06-10T03:20:32.085Z,1011.02
2019-06-10T03:21:32.387Z,1011.00
2019-06-10T03:22:32.634Z,1010.97
2019-06-10T03:23:32.018Z,1011.01
2019-06-10T03:24:32.657Z,1010.99
2019-06-10T03:25:30.262Z,1011.05
2019-06-10T03:26:32.317Z,1011.03
2019-06-10T03:27:32.716Z,1010.94
2019-06-10T03:28:32.108Z,1010.82
2019-06-10T03:29:32.626Z,1010.84
2019-06-10T03:30:41.183Z,1010.95
2019-06-10T03:31:40.951Z,1010.91
2019-06-10T03:32:36.641Z,1010.80
2019-06-10T03:33:40.435Z,1010.81
2019-06-10T03:34:40.742Z,1010.79
2019-06-10T03:35:33.059Z,1010.80
2019-06-10T03:36:32.139Z,1010.86
2019-06-10T03:37:30.105Z,1010.72
2019-06-10T03:38:32.258Z,1010.82
2019-06-10T03:39:32.143Z,1010.73
2019-06-10T03:40:30.070Z,1010.79
2019-06-10T03:41:32.143Z,1010.78
2019-06-10T03:42:32.333Z,1010.85
2019-06-10T03:43:32.614Z,1010.75
2019-06-10T03:44:30.038Z,1010.95
2019-06-10T03:45:32.269Z,1010.82
2019-06-10T03:46:30.006Z,1010.84
2019-06-10T03:47:32.300Z,1010.83
2019-06-10T03:48:32.578Z,1011.05
2019-06-10T03:49:32.043Z,1010.88
2019-06-10T03:50:32.353Z,1011.04
2019-06-10T03:51:29.938Z,1010.98
2019-06-10T03:52:32.316Z,1011.18
2019-06-10T03:53:29.920Z,1011.15
2019-06-10T03:54:32.369Z,1011.07
2019-06-10T03:55:29.930Z,1011.11
2019-06-10T03:56:32.062Z,1011.25
2019-06-10T03:57:29.871Z,1011.14
2019-06-10T03:58:29.868Z,1011.30
2019-06-10T03:59:32.340Z,1011.24
2019-06-10T04:00:29.856Z,1011.20
2019-06-10T04:01:30.127Z,1011.23
2019-06-10T04:02:29.869Z,1011.13
2019-06-10T04:03:29.798Z,1011.20
2019-06-10T04:04:29.793Z,1011.11
2019-06-10T04:05:29.805Z,1011.10
2019-06-10T04:06:29.779Z,1011.15
2019-06-10T04:07:31.942Z,1011.14
2019-06-10T04:08:29.749Z,1011.02
2019-06-10T04:09:30.462Z,1011.09
2019-06-10T04:10:29.755Z,1011.06
2019-06-10T04:11:32.292Z,1011.10
2019-06-10T04:12:32.780Z,1010.94
2019-06-10T04:13:29.696Z,1010.97
2019-06-10T04:14:29.677Z,1011.05
2019-06-10T04:15:32.379Z,1011.01
2019-06-10T04:16:29.665Z,1010.93
2019-06-10T04:17:29.653Z,1010.88
2019-06-10T04:18:29.635Z,1010.88
2019-06-10T04:19:29.635Z,1010.92
2019-06-10T04:20:29.733Z,1010.81
2019-06-10T04:21:29.606Z,1010.97
2019-06-10T04:22:29.591Z,1010.93
2019-06-10T04:23:29.581Z,1010.85
2019-06-10T04:24:29.571Z,1010.93
2019-06-10T04:25:32.244Z,1010.95
2019-06-10T04:26:29.670Z,1010.92
2019-06-10T04:27:29.536Z,1010.89
2019-06-10T04:28:29.523Z,1010.94
2019-06-10T04:29:29.514Z,1010.83
2019-06-10T04:30:29.526Z,1010.89
2019-06-10T04:31:29.768Z,1010.74
2019-06-10T04:32:29.481Z,1010.80
2019-06-10T04:33:29.472Z,1010.78
2019-06-10T04:34:31.017Z,1010.74
2019-06-10T04:35:29.461Z,1010.79
2019-06-10T04:36:29.498Z,1010.85
2019-06-10T04:37:29.617Z,1010.91
2019-06-10T04:38:32.467Z,1010.89
2019-06-10T04:39:29.417Z,1010.84
2019-06-10T04:40:29.425Z,1010.95
2019-06-10T04:41:29.375Z,1010.82
2019-06-10T04:42:29.380Z,1010.87
2019-06-10T04:43:29.356Z,1010.99
2019-06-10T04:44:29.468Z,1010.86
2019-06-10T04:45:29.367Z,1010.86
2019-06-10T04:46:29.608Z,1010.94
2019-06-10T04:47:29.663Z,1010.88
2019-06-10T04:48:29.411Z,1010.62
2019-06-10T04:49:29.840Z,1010.50
2019-06-10T04:50:40.477Z,1010.60
2019-06-10T04:51:32.666Z,1010.56
2019-06-10T04:52:29.887Z,1010.42
2019-06-10T04:53:29.490Z,1010.41
2019-06-10T04:54:29.971Z,1010.46
2019-06-10T04:55:29.351Z,1010.29
2019-06-10T04:56:30.488Z,1010.21
2019-06-10T04:57:29.633Z,1010.32
2019-06-10T04:58:30.367Z,1010.19
2019-06-10T04:59:30.446Z,1010.23
2019-06-10T05:00:30.305Z,1010.23
2019-06-10T05:01:30.159Z,1010.11
2019-06-10T05:02:30.790Z,1010.10
2019-06-10T05:03:29.575Z,1010.13
2019-06-10T05:04:30.713Z,1010.14
2019-06-10T05:05:30.083Z,1010.16
2019-06-10T05:06:29.793Z,1010.20
2019-06-10T05:07:34.200Z,1010.15
2019-06-10T05:08:30.076Z,1010.18
2019-06-10T05:09:30.275Z,1010.20
2019-06-10T05:10:29.917Z,1010.14
2019-06-10T05:11:30.847Z,1010.34
2019-06-10T05:12:29.645Z,1010.35
2019-06-10T05:13:29.995Z,1010.39
2019-06-10T05:14:30.285Z,1010.53
2019-06-10T05:15:31.535Z,1010.47
2019-06-10T05:16:32.178Z,1010.49
2019-06-10T05:17:30.892Z,1010.37
2019-06-10T05:18:30.200Z,1010.38
2019-06-10T05:19:30.409Z,1010.40
2019-06-10T05:20:48.559Z,1010.40
2019-06-10T05:21:31.549Z,1010.52
2019-06-10T05:22:30.578Z,1010.41
2019-06-10T05:23:29.962Z,1010.35
2019-06-10T05:24:30.126Z,1010.39
2019-06-10T05:25:30.046Z,1010.46
2019-06-10T05:26:30.148Z,1010.38
2019-06-10T05:27:30.117Z,1010.39
2019-06-10T05:28:28.849Z,1010.34
2019-06-10T05:29:29.882Z,1010.41
2019-06-10T05:30:29.575Z,1010.48
2019-06-10T05:31:30.141Z,1010.54
2019-06-10T05:32:31.175Z,1010.43
2019-06-10T05:33:28.796Z,1010.47
2019-06-10T05:34:29.968Z,1010.40
2019-06-10T05:35:29.956Z,1010.44
2019-06-10T05:36:30.159Z,1010.43
2019-06-10T05:37:29.357Z,1010.47
2019-06-10T05:38:29.144Z,1010.40
2019-06-10T05:39:29.157Z,1010.50
2019-06-10T05:40:29.373Z,1010.41
2019-06-10T05:41:29.547Z,1010.51
2019-06-10T05:42:29.375Z,1010.44
2019-06-10T05:43:29.677Z,1010.38
2019-06-10T05:44:29.889Z,1010.41
2019-06-10T05:45:29.516Z,1010.42
2019-06-10T05:46:28.782Z,1010.28
2019-06-10T05:47:30.717Z,1010.28
2019-06-10T05:48:28.625Z,1010.34
2019-06-10T05:49:29.188Z,1010.36
2019-06-10T05:50:28.619Z,1010.36
2019-06-10T05:51:29.032Z,1010.39
2019-06-10T05:52:29.055Z,1010.46
2019-06-10T05:53:29.240Z,1010.50
2019-06-10T05:54:29.120Z,1010.37
2019-06-10T05:55:29.097Z,1010.48
2019-06-10T05:56:29.136Z,1010.37
2019-06-10T05:57:29.452Z,1010.34
2019-06-10T05:58:29.367Z,1010.41
2019-06-10T05:59:29.435Z,1010.27
2019-06-10T06:00:29.535Z,1010.32
2019-06-10T06:01:29.656Z,1010.31
2019-06-10T06:02:29.601Z,1010.18
2019-06-10T06:03:28.454Z,1010.14
2019-06-10T06:04:28.449Z,1010.17
2019-06-10T06:05:28.568Z,1010.12
2019-06-10T06:06:29.140Z,1010.17
2019-06-10T06:07:29.176Z,1010.18
2019-06-10T06:08:29.130Z,1010.17
2019-06-10T06:09:29.222Z,1010.18
2019-06-10T06:10:29.451Z,1010.22
2019-06-10T06:11:29.334Z,1010.21
2019-06-10T06:12:29.298Z,1010.13
2019-06-10T06:13:29.458Z,1010.24
2019-06-10T06:14:29.477Z,1010.12
2019-06-10T06:15:29.582Z,1010.13
2019-06-10T06:16:28.311Z,1010.15
2019-06-10T06:17:28.296Z,1010.31
2019-06-10T06:18:28.302Z,1010.29
2019-06-10T06:19:28.270Z,1010.28
2019-06-10T06:20:29.286Z,1010.22
2019-06-10T06:21:32.422Z,1010.16
2019-06-10T06:22:29.514Z,1010.20
2019-06-10T06:23:28.564Z,1010.21
2019-06-10T06:24:29.283Z,1010.17
2019-06-10T06:25:30.552Z,1010.18
2019-06-10T06:26:28.885Z,1010.20
2019-06-10T06:27:28.722Z,1010.08
2019-06-10T06:28:28.178Z,1010.06
2019-06-10T06:29:28.864Z,1010.07
2019-06-10T06:30:28.174Z,1010.05
2019-06-10T06:31:28.177Z,1010.00
2019-06-10T06:32:28.424Z,1010.07
2019-06-10T06:33:29.359Z,1010.01
2019-06-10T06:34:28.397Z,1010.02
2019-06-10T06:35:28.473Z,1010.00
2019-06-10T06:36:28.675Z,1010.03
2019-06-10T06:37:28.937Z,1009.98
2019-06-10T06:38:28.806Z,1010.19
2019-06-10T06:39:29.005Z,1010.11
2019-06-10T06:40:29.233Z,1010.10
2019-06-10T06:41:28.023Z,1010.10
2019-06-10T06:42:28.012Z,1010.15
2019-06-10T06:43:30.632Z,1010.21
2019-06-10T06:44:28.000Z,1010.11
2019-06-10T06:45:28.011Z,1010.12
2019-06-10T06:46:27.962Z,1010.09
2019-06-10T06:47:27.958Z,1010.09
2019-06-10T06:48:27.960Z,1010.19
2019-06-10T06:49:27.944Z,1010.02
2019-06-10T06:50:28.454Z,1010.00
2019-06-10T06:51:39.608Z,1010.06
2019-06-10T06:52:57.253Z,1010.03
2019-06-10T06:53:35.217Z,1010.09
2019-06-10T06:54:28.913Z,1009.97
2019-06-10T06:55:28.646Z,1010.02
2019-06-10T06:56:28.877Z,1009.98
2019-06-10T06:57:28.911Z,1009.99
2019-06-10T06:58:29.103Z,1010.10
2019-06-10T06:59:29.158Z,1009.97
2019-06-10T07:00:46.495Z,1009.94
2019-06-10T07:01:29.680Z,1010.00
2019-06-10T07:02:27.796Z,1009.86
2019-06-10T07:03:27.792Z,1009.91
2019-06-10T07:04:27.770Z,1009.84
2019-06-10T07:05:27.851Z,1009.62
2019-06-10T07:06:27.755Z,1009.63
2019-06-10T07:07:27.741Z,1009.44
2019-06-10T07:08:27.731Z,1009.46
2019-06-10T07:09:27.717Z,1009.36
2019-06-10T07:10:27.713Z,1009.46
2019-06-10T07:11:27.687Z,1009.41
2019-06-10T07:12:27.715Z,1009.44
2019-06-10T07:13:27.688Z,1009.42
2019-06-10T07:14:27.649Z,1009.56
2019-06-10T07:15:27.681Z,1009.54
2019-06-10T07:16:27.658Z,1009.55
2019-06-10T07:17:27.626Z,1009.55
2019-06-10T07:18:27.619Z,1009.63
2019-06-10T07:19:27.602Z,1009.68
2019-06-10T07:20:27.613Z,1009.70
2019-06-10T07:21:27.577Z,1009.69
2019-06-10T07:22:27.570Z,1009.61
2019-06-10T07:23:27.557Z,1009.74
2019-06-10T07:24:27.555Z,1009.74
2019-06-10T07:25:27.577Z,1009.59
2019-06-10T07:26:27.520Z,1009.58
2019-06-10T07:27:27.516Z,1009.49
2019-06-10T07:28:27.512Z,1009.53
2019-06-10T07:29:27.515Z,1009.47
2019-06-10T07:30:27.500Z,1009.59
2019-06-10T07:31:28.119Z,1009.48
2019-06-10T07:32:27.470Z,1009.55
2019-06-10T07:33:27.438Z,1009.66
2019-06-10T07:34:27.430Z,1009.64
2019-06-10T07:35:27.457Z,1009.64
2019-06-10T07:36:27.413Z,1009.54
2019-06-10T07:37:27.401Z,1009.58
2019-06-10T07:38:27.404Z,1009.58
2019-06-10T07:39:27.372Z,1009.48
2019-06-10T07:40:27.412Z,1009.45
2019-06-10T07:41:27.388Z,1009.45
2019-06-10T07:42:27.346Z,1009.59
2019-06-10T07:43:27.338Z,1009.58
2019-06-10T07:44:27.325Z,1009.45
2019-06-10T07:45:27.348Z,1009.55
2019-06-10T07:46:27.390Z,1009.54
2019-06-10T07:47:27.280Z,1009.55
2019-06-10T07:48:27.278Z,1009.48
2019-06-10T07:49:27.292Z,1009.47
2019-06-10T07:50:27.295Z,1009.49
2019-06-10T07:51:27.249Z,1009.53
2019-06-10T07:52:27.237Z,1009.53
2019-06-10T07:53:27.217Z,1009.67
2019-06-10T07:54:27.223Z,1009.71
2019-06-10T07:55:27.284Z,1009.57
2019-06-10T07:56:30.613Z,1009.65
2019-06-10T07:57:28.168Z,1009.56
2019-06-10T07:58:27.158Z,1009.69
2019-06-10T07:59:27.155Z,1009.60
2019-06-10T08:00:27.179Z,1009.68
2019-06-10T08:01:27.149Z,1009.69
2019-06-10T08:02:27.124Z,1009.61
2019-06-10T08:03:27.113Z,1009.56
2019-06-10T08:04:27.093Z,1009.56
2019-06-10T08:05:27.110Z,1009.58
2019-06-10T08:06:27.089Z,1009.64
2019-06-10T08:07:27.053Z,1009.67
2019-06-10T08:08:27.054Z,1009.61
2019-06-10T08:09:27.043Z,1009.62
2019-06-10T08:10:27.048Z,1009.59
2019-06-10T08:11:27.024Z,1009.68
2019-06-10T08:12:27.000Z,1009.58
2019-06-10T08:13:26.991Z,1009.59
2019-06-10T08:14:26.990Z,1009.58
2019-06-10T08:15:27.016Z,1009.51
2019-06-10T08:16:26.969Z,1009.53
2019-06-10T08:17:26.954Z,1009.51
2019-06-10T08:18:26.941Z,1009.52
2019-06-10T08:19:34.832Z,1009.51
2019-06-10T08:20:27.940Z,1009.59
2019-06-10T08:21:26.909Z,1009.50
2019-06-10T08:22:33.534Z,1009.58
2019-06-10T08:23:27.886Z,1009.47
2019-06-10T08:24:26.877Z,1009.57
2019-06-10T08:25:26.881Z,1009.56
2019-06-10T08:26:26.858Z,1009.42
2019-06-10T08:27:26.839Z,1009.46
2019-06-10T08:28:26.825Z,1009.42
2019-06-10T08:29:26.888Z,1009.43
2019-06-10T08:30:27.792Z,1009.47
2019-06-10T08:31:26.797Z,1009.42
2019-06-10T08:32:26.787Z,1009.51
2019-06-10T08:33:26.769Z,1009.55
2019-06-10T08:34:26.798Z,1009.36
2019-06-10T08:35:37.968Z,1009.39
2019-06-10T08:36:27.739Z,1009.45
2019-06-10T08:37:26.719Z,1009.56
2019-06-10T08:38:26.734Z,1009.51
2019-06-10T08:39:26.717Z,1009.41
2019-06-10T08:40:26.720Z,1009.44
2019-06-10T08:41:26.683Z,1009.55
2019-06-10T08:42:26.685Z,1009.54
2019-06-10T08:43:26.658Z,1009.52
2019-06-10T08:44:26.647Z,1009.45
2019-06-10T08:45:26.676Z,1009.58
2019-06-10T08:46:26.619Z,1009.46
2019-06-10T08:47:26.611Z,1009.61
2019-06-10T08:48:26.822Z,1009.46
2019-06-10T08:49:26.616Z,1009.47
2019-06-10T08:50:26.608Z,1009.48
2019-06-10T08:51:26.581Z,1009.41
2019-06-10T08:52:26.551Z,1009.38
2019-06-10T08:53:26.548Z,1009.38
2019-06-10T08:54:26.549Z,1009.34
2019-06-10T08:55:26.550Z,1009.43
2019-06-10T08:56:26.512Z,1009.42
2019-06-10T08:57:26.511Z,1009.38
2019-06-10T08:58:26.494Z,1009.32
2019-06-10T08:59:26.489Z,1009.44
2019-06-10T09:00:26.497Z,1009.44
2019-06-10T09:01:26.464Z,1009.24
2019-06-10T09:02:26.446Z,1009.21
2019-06-10T09:03:26.447Z,1009.39
2019-06-10T09:04:29.363Z,1009.21
2019-06-10T09:05:26.428Z,1009.21
2019-06-10T09:06:26.400Z,1009.26
2019-06-10T09:07:26.396Z,1009.34
2019-06-10T09:08:26.382Z,1009.25
2019-06-10T09:09:26.383Z,1009.24
2019-06-10T09:10:26.385Z,1009.40
2019-06-10T09:11:26.579Z,1009.41
2019-06-10T09:12:32.431Z,1009.29
2019-06-10T09:13:27.323Z,1009.34
2019-06-10T09:14:26.323Z,1009.38
2019-06-10T09:15:26.326Z,1009.36
2019-06-10T09:16:26.285Z,1009.33
2019-06-10T09:17:26.295Z,1009.39
2019-06-10T09:18:26.277Z,1009.35
2019-06-10T09:19:26.256Z,1009.23
2019-06-10T09:20:26.279Z,1009.31
2019-06-10T09:21:26.238Z,1009.13
2019-06-10T09:22:26.215Z,1009.28
2019-06-10T09:23:26.208Z,1009.21
2019-06-10T09:24:26.204Z,1009.28
2019-06-10T09:25:26.248Z,1009.28
2019-06-10T09:26:26.177Z,1009.31
2019-06-10T09:27:27.025Z,1009.29
2019-06-10T09:28:26.161Z,1009.30
2019-06-10T09:29:26.141Z,1009.41
2019-06-10T09:30:26.146Z,1009.32
2019-06-10T09:31:26.130Z,1009.27
2019-06-10T09:32:26.119Z,1009.23
2019-06-10T09:33:26.111Z,1009.32
2019-06-10T09:34:26.102Z,1009.17
2019-06-10T09:35:26.096Z,1009.26
2019-06-10T09:36:26.066Z,1009.16
2019-06-10T09:37:26.068Z,1009.17
2019-06-10T09:38:26.030Z,1009.26
2019-06-10T09:39:26.029Z,1009.16
2019-06-10T09:40:26.056Z,1009.16
2019-06-10T09:41:36.423Z,1009.24
2019-06-10T09:42:26.987Z,1009.26
2019-06-10T09:43:25.989Z,1009.06
2019-06-10T09:44:25.977Z,1009.09
2019-06-10T09:45:26.011Z,1009.18
2019-06-10T09:46:25.945Z,1009.01
2019-06-10T09:47:25.946Z,1009.03
2019-06-10T09:48:25.935Z,1009.02
2019-06-10T09:49:25.941Z,1008.98
2019-06-10T09:50:25.937Z,1008.95
2019-06-10T09:51:25.904Z,1009.01
2019-06-10T09:52:25.893Z,1008.97
2019-06-10T09:53:33.365Z,1008.86
2019-06-10T09:54:26.867Z,1008.88
2019-06-10T09:55:25.881Z,1008.98
2019-06-10T09:56:25.844Z,1008.94
2019-06-10T09:57:25.826Z,1008.95
2019-06-10T09:58:25.827Z,1008.93
2019-06-10T09:59:25.814Z,1008.88
2019-06-10T10:00:29.117Z,1009.04
2019-06-10T10:01:25.791Z,1008.94
2019-06-10T10:02:25.788Z,1008.93
2019-06-10T10:03:25.762Z,1008.92
2019-06-10T10:04:25.760Z,1008.99
2019-06-10T10:05:25.774Z,1008.95
2019-06-10T10:06:25.731Z,1009.01
2019-06-10T10:07:25.729Z,1009.00
2019-06-10T10:08:25.707Z,1009.04
2019-06-10T10:09:25.702Z,1009.12
2019-06-10T10:10:25.720Z,1009.18
2019-06-10T10:11:28.529Z,1009.14
2019-06-10T10:12:25.665Z,1009.19
2019-06-10T10:13:25.657Z,1009.05
2019-06-10T10:14:25.649Z,1009.08
2019-06-10T10:15:30.898Z,1009.19
2019-06-10T10:16:26.640Z,1009.20
2019-06-10T10:17:25.607Z,1009.18
2019-06-10T10:18:25.601Z,1009.20
2019-06-10T10:19:25.608Z,1009.28
2019-06-10T10:20:25.614Z,1009.06
2019-06-10T10:21:25.576Z,1009.13
2019-06-10T10:22:25.569Z,1009.26
2019-06-10T10:23:25.531Z,1009.25
2019-06-10T10:24:25.546Z,1009.17
2019-06-10T10:25:25.543Z,1009.31
2019-06-10T10:26:25.528Z,1009.31
2019-06-10T10:27:25.507Z,1009.16
2019-06-10T10:28:26.533Z,1009.30
2019-06-10T10:29:25.471Z,1009.24
2019-06-10T10:30:25.498Z,1009.17
2019-06-10T10:31:25.458Z,1009.22
2019-06-10T10:32:25.448Z,1009.25
2019-06-10T10:33:29.976Z,1009.12
2019-06-10T10:34:26.442Z,1009.07
2019-06-10T10:35:25.434Z,1009.06
2019-06-10T10:36:25.390Z,1009.17
2019-06-10T10:37:25.394Z,1009.03
2019-06-10T10:38:25.568Z,1009.20
2019-06-10T10:39:25.365Z,1009.14
2019-06-10T10:40:25.387Z,1008.93
2019-06-10T10:41:25.338Z,1008.98
2019-06-10T10:42:38.985Z,1009.14
2019-06-10T10:43:33.185Z,1009.05
2019-06-10T10:44:26.332Z,1009.15
2019-06-10T10:45:25.327Z,1008.99
2019-06-10T10:46:25.287Z,1009.03
2019-06-10T10:47:27.683Z,1009.12
2019-06-10T10:48:25.265Z,1008.98
2019-06-10T10:49:25.244Z,1009.04
2019-06-10T10:50:25.284Z,1009.16
2019-06-10T10:51:25.281Z,1009.18
2019-06-10T10:52:25.225Z,1008.97
2019-06-10T10:53:25.217Z,1009.13
2019-06-10T10:54:33.041Z,1009.03
2019-06-10T10:55:26.216Z,1009.14
2019-06-10T10:56:25.190Z,1008.97
2019-06-10T10:57:25.160Z,1009.01
2019-06-10T10:58:25.189Z,1008.99
2019-06-10T10:59:25.141Z,1008.97
2019-06-10T11:00:25.155Z,1009.03
2019-06-10T11:01:25.122Z,1009.05
2019-06-10T11:02:25.117Z,1008.89
2019-06-10T11:03:25.109Z,1008.81
2019-06-10T11:04:25.143Z,1008.92
2019-06-10T11:05:25.096Z,1008.83
2019-06-10T11:06:25.664Z,1008.89
2019-06-10T11:07:25.056Z,1008.96
2019-06-10T11:08:25.036Z,1008.84
2019-06-10T11:09:25.048Z,1008.89
2019-06-10T11:10:25.058Z,1008.90
2019-06-10T11:11:25.040Z,1008.98
2019-06-10T11:12:25.004Z,1008.96
2019-06-10T11:13:25.002Z,1008.99
2019-06-10T11:14:24.999Z,1008.84
2019-06-10T11:15:24.983Z,1008.94
2019-06-10T11:16:24.958Z,1008.84
2019-06-10T11:17:25.808Z,1008.94
2019-06-10T11:18:24.937Z,1009.00
2019-06-10T11:19:24.914Z,1008.90
2019-06-10T11:20:24.944Z,1008.91
2019-06-10T11:21:24.897Z,1008.85
2019-06-10T11:22:24.907Z,1008.95
2019-06-10T11:23:24.862Z,1008.98
2019-06-10T11:24:36.726Z,1009.10
2019-06-10T11:25:25.885Z,1008.95
2019-06-10T11:26:26.861Z,1009.01
2019-06-10T11:27:24.829Z,1009.00
2019-06-10T11:28:24.823Z,1009.04
2019-06-10T11:29:24.808Z,1008.99
2019-06-10T11:30:24.813Z,1008.84
2019-06-10T11:31:24.792Z,1008.84
2019-06-10T11:32:24.787Z,1008.80
2019-06-10T11:33:24.804Z,1008.91
2019-06-10T11:34:24.785Z,1008.79
2019-06-10T11:35:24.757Z,1008.76
2019-06-10T11:36:24.732Z,1008.72
2019-06-10T11:37:24.721Z,1008.72
2019-06-10T11:38:24.715Z,1008.67
2019-06-10T11:39:24.705Z,1008.79
2019-06-10T11:40:24.723Z,1008.83
2019-06-10T11:41:24.970Z,1008.72
2019-06-10T11:42:24.682Z,1008.67
2019-06-10T11:43:24.659Z,1008.72
2019-06-10T11:44:24.642Z,1008.78
2019-06-10T11:45:24.662Z,1008.73
2019-06-10T11:46:24.618Z,1008.75
2019-06-10T11:47:24.607Z,1008.85
2019-06-10T11:48:24.600Z,1008.77
2019-06-10T11:49:24.592Z,1008.79
2019-06-10T11:50:24.599Z,1008.80
2019-06-10T11:51:24.567Z,1008.85
2019-06-10T11:52:24.561Z,1008.75
2019-06-10T11:53:24.566Z,1008.78
2019-06-10T11:54:24.529Z,1008.82
2019-06-10T11:55:24.544Z,1008.70
2019-06-10T11:56:24.510Z,1008.79
2019-06-10T11:57:24.499Z,1008.67
2019-06-10T11:58:24.498Z,1008.72
2019-06-10T11:59:24.505Z,1008.74
2019-06-10T12:00:24.480Z,1008.73
2019-06-10T12:01:24.490Z,1008.65
2019-06-10T12:02:24.450Z,1008.62
2019-06-10T12:03:24.429Z,1008.60
2019-06-10T12:04:24.440Z,1008.55
2019-06-10T12:05:24.427Z,1008.52